sensor_id;sensor_type;location;lat;lon;timestamp;temperature;humidity
19088;DHT22;9676;50.916;13.352;2023-05-25T00:00:29;11.50;49.40
19088;DHT22;9676;50.916;13.352;2023-05-25T00:03:18;11.50;49.40
19088;DHT22;9676;50.916;13.352;2023-05-25T00:06:08;11.50;49.40
19088;DHT22;9676;50.916;13.352;2023-05-25T00:08:57;11.50;49.40
19088;DHT22;9676;50.916;13.352;2023-05-25T00:11:47;11.50;49.50
19088;DHT22;9676;50.916;13.352;2023-05-25T00:14:37;11.40;49.50
19088;DHT22;9676;50.916;13.352;2023-05-25T00:17:27;11.40;49.60
19088;DHT22;9676;50.916;13.352;2023-05-25T00:20:16;11.40;49.70
19088;DHT22;9676;50.916;13.352;2023-05-25T00:23:06;11.30;49.60
19088;DHT22;9676;50.916;13.352;2023-05-25T00:25:55;11.30;49.60
19088;DHT22;9676;50.916;13.352;2023-05-25T00:28:45;11.30;49.60
19088;DHT22;9676;50.916;13.352;2023-05-25T00:31:35;11.30;49.70
19088;DHT22;9676;50.916;13.352;2023-05-25T00:34:25;11.20;49.70
19088;DHT22;9676;50.916;13.352;2023-05-25T00:37:14;11.20;49.70
19088;DHT22;9676;50.916;13.352;2023-05-25T00:40:07;11.20;49.80
19088;DHT22;9676;50.916;13.352;2023-05-25T00:42:58;11.10;49.70
19088;DHT22;9676;50.916;13.352;2023-05-25T00:45:48;11.10;49.70
19088;DHT22;9676;50.916;13.352;2023-05-25T00:48:40;11.10;49.80
19088;DHT22;9676;50.916;13.352;2023-05-25T00:51:30;11.00;49.90
19088;DHT22;9676;50.916;13.352;2023-05-25T00:54:20;11.00;49.90
19088;DHT22;9676;50.916;13.352;2023-05-25T00:57:12;11.00;49.90
19088;DHT22;9676;50.916;13.352;2023-05-25T01:00:04;11.00;50.00
19088;DHT22;9676;50.916;13.352;2023-05-25T01:02:58;11.00;50.00
19088;DHT22;9676;50.916;13.352;2023-05-25T01:05:50;11.00;50.00
19088;DHT22;9676;50.916;13.352;2023-05-25T01:08:46;10.90;50.10
19088;DHT22;9676;50.916;13.352;2023-05-25T01:11:41;10.90;50.60
19088;DHT22;9676;50.916;13.352;2023-05-25T01:14:32;10.90;50.10
19088;DHT22;9676;50.916;13.352;2023-05-25T01:17:23;10.90;50.10
19088;DHT22;9676;50.916;13.352;2023-05-25T01:20:13;10.80;50.00
19088;DHT22;9676;50.916;13.352;2023-05-25T01:23:09;10.80;50.00
19088;DHT22;9676;50.916;13.352;2023-05-25T01:26:04;10.80;50.20
19088;DHT22;9676;50.916;13.352;2023-05-25T01:28:58;10.70;50.00
19088;DHT22;9676;50.916;13.352;2023-05-25T01:31:52;10.70;50.20
19088;DHT22;9676;50.916;13.352;2023-05-25T01:34:42;10.70;50.30
19088;DHT22;9676;50.916;13.352;2023-05-25T01:37:34;10.70;50.40
19088;DHT22;9676;50.916;13.352;2023-05-25T01:40:26;10.70;50.40
19088;DHT22;9676;50.916;13.352;2023-05-25T01:43:16;10.60;50.40
19088;DHT22;9676;50.916;13.352;2023-05-25T01:49:15;10.60;50.00
19088;DHT22;9676;50.916;13.352;2023-05-25T01:52:19;10.60;50.50
19088;DHT22;9676;50.916;13.352;2023-05-25T01:55:11;10.50;50.40
19088;DHT22;9676;50.916;13.352;2023-05-25T01:58:05;10.50;50.40
19088;DHT22;9676;50.916;13.352;2023-05-25T02:00:57;10.50;50.50
19088;DHT22;9676;50.916;13.352;2023-05-25T02:03:46;10.50;50.50
19088;DHT22;9676;50.916;13.352;2023-05-25T02:06:37;10.50;50.50
19088;DHT22;9676;50.916;13.352;2023-05-25T02:09:26;10.40;50.40
19088;DHT22;9676;50.916;13.352;2023-05-25T02:12:16;10.40;50.50
19088;DHT22;9676;50.916;13.352;2023-05-25T02:15:08;10.40;50.60
19088;DHT22;9676;50.916;13.352;2023-05-25T02:17:58;10.40;50.70
19088;DHT22;9676;50.916;13.352;2023-05-25T02:20:50;10.40;50.70
19088;DHT22;9676;50.916;13.352;2023-05-25T02:23:40;10.40;50.70
19088;DHT22;9676;50.916;13.352;2023-05-25T02:26:29;10.30;50.70
19088;DHT22;9676;50.916;13.352;2023-05-25T02:29:19;10.30;50.70
19088;DHT22;9676;50.916;13.352;2023-05-25T02:32:10;10.30;50.80
19088;DHT22;9676;50.916;13.352;2023-05-25T02:34:59;10.30;50.90
19088;DHT22;9676;50.916;13.352;2023-05-25T02:37:48;10.20;50.80
19088;DHT22;9676;50.916;13.352;2023-05-25T02:40:38;10.20;50.80
19088;DHT22;9676;50.916;13.352;2023-05-25T02:43:27;10.20;50.80
19088;DHT22;9676;50.916;13.352;2023-05-25T02:46:17;10.20;50.90
19088;DHT22;9676;50.916;13.352;2023-05-25T02:49:09;10.20;50.80
19088;DHT22;9676;50.916;13.352;2023-05-25T02:51:58;10.20;50.90
19088;DHT22;9676;50.916;13.352;2023-05-25T02:54:47;10.10;50.80
19088;DHT22;9676;50.916;13.352;2023-05-25T02:57:43;10.10;51.00
19088;DHT22;9676;50.916;13.352;2023-05-25T03:00:45;10.10;51.00
19088;DHT22;9676;50.916;13.352;2023-05-25T03:03:35;10.10;51.00
19088;DHT22;9676;50.916;13.352;2023-05-25T03:06:26;10.10;51.10
19088;DHT22;9676;50.916;13.352;2023-05-25T03:09:18;10.10;51.20
19088;DHT22;9676;50.916;13.352;2023-05-25T03:12:09;10.10;51.20
19088;DHT22;9676;50.916;13.352;2023-05-25T03:14:59;10.00;51.20
19088;DHT22;9676;50.916;13.352;2023-05-25T03:17:48;10.00;51.30
19088;DHT22;9676;50.916;13.352;2023-05-25T03:20:38;10.00;51.30
19088;DHT22;9676;50.916;13.352;2023-05-25T03:23:30;10.10;51.50
19088;DHT22;9676;50.916;13.352;2023-05-25T03:26:23;10.10;51.60
19088;DHT22;9676;50.916;13.352;2023-05-25T03:29:13;10.10;51.70
19088;DHT22;9676;50.916;13.352;2023-05-25T03:32:03;10.10;51.70
19088;DHT22;9676;50.916;13.352;2023-05-25T03:34:54;10.10;51.70
19088;DHT22;9676;50.916;13.352;2023-05-25T03:37:45;10.20;51.80
19088;DHT22;9676;50.916;13.352;2023-05-25T03:40:36;10.10;51.80
19088;DHT22;9676;50.916;13.352;2023-05-25T03:43:26;10.20;51.90
19088;DHT22;9676;50.916;13.352;2023-05-25T03:46:16;10.20;51.80
19088;DHT22;9676;50.916;13.352;2023-05-25T03:49:05;10.20;51.90
19088;DHT22;9676;50.916;13.352;2023-05-25T03:51:55;10.30;52.10
19088;DHT22;9676;50.916;13.352;2023-05-25T03:54:49;10.40;52.10
19088;DHT22;9676;50.916;13.352;2023-05-25T03:57:40;10.40;52.20
19088;DHT22;9676;50.916;13.352;2023-05-25T04:00:30;10.40;52.30
19088;DHT22;9676;50.916;13.352;2023-05-25T04:03:19;10.50;52.40
19088;DHT22;9676;50.916;13.352;2023-05-25T04:06:09;10.50;52.50
19088;DHT22;9676;50.916;13.352;2023-05-25T04:08:59;10.60;52.60
19088;DHT22;9676;50.916;13.352;2023-05-25T04:11:48;10.70;52.80
19088;DHT22;9676;50.916;13.352;2023-05-25T04:14:39;10.80;53.00
19088;DHT22;9676;50.916;13.352;2023-05-25T04:17:29;10.90;53.20
19088;DHT22;9676;50.916;13.352;2023-05-25T04:20:19;11.00;53.70
19088;DHT22;9676;50.916;13.352;2023-05-25T04:23:09;11.20;54.60
19088;DHT22;9676;50.916;13.352;2023-05-25T04:26:01;11.50;55.40
19088;DHT22;9676;50.916;13.352;2023-05-25T04:28:53;11.90;56.20
19088;DHT22;9676;50.916;13.352;2023-05-25T04:31:56;12.40;56.60
19088;DHT22;9676;50.916;13.352;2023-05-25T04:35:01;12.90;57.10
19088;DHT22;9676;50.916;13.352;2023-05-25T04:37:59;13.40;57.40
19088;DHT22;9676;50.916;13.352;2023-05-25T04:40:50;13.90;58.10
19088;DHT22;9676;50.916;13.352;2023-05-25T04:43:41;14.40;58.00
19088;DHT22;9676;50.916;13.352;2023-05-25T04:46:52;14.90;58.30
19088;DHT22;9676;50.916;13.352;2023-05-25T04:49:53;15.50;58.50
19088;DHT22;9676;50.916;13.352;2023-05-25T04:52:42;16.10;58.60
19088;DHT22;9676;50.916;13.352;2023-05-25T04:55:32;16.80;59.00
19088;DHT22;9676;50.916;13.352;2023-05-25T04:58:21;17.30;59.00
19088;DHT22;9676;50.916;13.352;2023-05-25T05:01:11;17.90;58.90
19088;DHT22;9676;50.916;13.352;2023-05-25T05:04:00;18.50;59.10
19088;DHT22;9676;50.916;13.352;2023-05-25T05:06:51;19.20;59.30
19088;DHT22;9676;50.916;13.352;2023-05-25T05:09:44;19.80;59.30
19088;DHT22;9676;50.916;13.352;2023-05-25T05:12:34;20.40;59.30
19088;DHT22;9676;50.916;13.352;2023-05-25T05:15:24;21.00;59.30
19088;DHT22;9676;50.916;13.352;2023-05-25T05:18:14;21.70;59.20
19088;DHT22;9676;50.916;13.352;2023-05-25T05:21:04;22.30;58.70
19088;DHT22;9676;50.916;13.352;2023-05-25T05:23:56;22.80;58.20
19088;DHT22;9676;50.916;13.352;2023-05-25T05:26:45;23.30;57.80
19088;DHT22;9676;50.916;13.352;2023-05-25T05:29:43;23.80;57.90
19088;DHT22;9676;50.916;13.352;2023-05-25T05:32:33;24.30;57.80
19088;DHT22;9676;50.916;13.352;2023-05-25T05:35:22;24.80;57.70
19088;DHT22;9676;50.916;13.352;2023-05-25T05:38:20;25.30;57.40
19088;DHT22;9676;50.916;13.352;2023-05-25T05:41:11;25.70;56.90
19088;DHT22;9676;50.916;13.352;2023-05-25T05:44:06;26.10;56.30
19088;DHT22;9676;50.916;13.352;2023-05-25T05:46:55;26.60;56.10
19088;DHT22;9676;50.916;13.352;2023-05-25T05:49:48;26.90;55.60
19088;DHT22;9676;50.916;13.352;2023-05-25T05:52:37;27.40;55.30
19088;DHT22;9676;50.916;13.352;2023-05-25T05:55:27;27.70;54.80
19088;DHT22;9676;50.916;13.352;2023-05-25T05:58:18;28.00;54.40
19088;DHT22;9676;50.916;13.352;2023-05-25T06:01:08;28.40;54.10
19088;DHT22;9676;50.916;13.352;2023-05-25T06:03:57;28.70;53.80
19088;DHT22;9676;50.916;13.352;2023-05-25T06:06:47;29.10;53.30
19088;DHT22;9676;50.916;13.352;2023-05-25T06:09:36;29.40;53.10
19088;DHT22;9676;50.916;13.352;2023-05-25T06:12:25;29.70;53.10
19088;DHT22;9676;50.916;13.352;2023-05-25T06:15:18;30.10;53.00
19088;DHT22;9676;50.916;13.352;2023-05-25T06:18:10;30.50;52.30
19088;DHT22;9676;50.916;13.352;2023-05-25T06:21:05;30.90;52.60
19088;DHT22;9676;50.916;13.352;2023-05-25T06:23:54;31.30;52.40
19088;DHT22;9676;50.916;13.352;2023-05-25T06:26:44;31.70;52.20
19088;DHT22;9676;50.916;13.352;2023-05-25T06:29:34;32.10;51.80
19088;DHT22;9676;50.916;13.352;2023-05-25T06:32:25;32.50;51.00
19088;DHT22;9676;50.916;13.352;2023-05-25T06:35:15;32.90;50.30
19088;DHT22;9676;50.916;13.352;2023-05-25T06:38:09;33.10;50.10
19088;DHT22;9676;50.916;13.352;2023-05-25T06:40:59;33.40;49.90
19088;DHT22;9676;50.916;13.352;2023-05-25T06:43:50;33.70;49.50
19088;DHT22;9676;50.916;13.352;2023-05-25T06:46:50;33.90;48.90
19088;DHT22;9676;50.916;13.352;2023-05-25T06:49:41;34.10;48.70
19088;DHT22;9676;50.916;13.352;2023-05-25T06:52:30;34.30;48.10
19088;DHT22;9676;50.916;13.352;2023-05-25T06:55:20;34.50;47.90
19088;DHT22;9676;50.916;13.352;2023-05-25T06:58:12;34.70;47.50
19088;DHT22;9676;50.916;13.352;2023-05-25T07:01:01;34.90;47.30
19088;DHT22;9676;50.916;13.352;2023-05-25T07:03:51;35.20;47.20
19088;DHT22;9676;50.916;13.352;2023-05-25T07:06:42;35.40;47.00
19088;DHT22;9676;50.916;13.352;2023-05-25T07:09:31;35.80;46.40
19088;DHT22;9676;50.916;13.352;2023-05-25T07:12:21;36.10;46.30
19088;DHT22;9676;50.916;13.352;2023-05-25T07:15:10;36.30;46.00
19088;DHT22;9676;50.916;13.352;2023-05-25T07:18:00;36.60;45.70
19088;DHT22;9676;50.916;13.352;2023-05-25T07:20:50;36.90;45.40
19088;DHT22;9676;50.916;13.352;2023-05-25T07:23:41;37.30;45.20
19088;DHT22;9676;50.916;13.352;2023-05-25T07:26:31;37.60;44.60
19088;DHT22;9676;50.916;13.352;2023-05-25T07:29:21;38.00;44.50
19088;DHT22;9676;50.916;13.352;2023-05-25T07:32:10;38.30;44.20
19088;DHT22;9676;50.916;13.352;2023-05-25T07:35:00;38.60;43.70
19088;DHT22;9676;50.916;13.352;2023-05-25T07:37:55;38.80;42.90
19088;DHT22;9676;50.916;13.352;2023-05-25T07:40:46;39.00;41.20
19088;DHT22;9676;50.916;13.352;2023-05-25T07:43:36;39.30;42.10
19088;DHT22;9676;50.916;13.352;2023-05-25T07:46:26;39.40;41.40
19088;DHT22;9676;50.916;13.352;2023-05-25T07:49:15;39.40;41.10
19088;DHT22;9676;50.916;13.352;2023-05-25T07:52:05;39.50;40.90
19088;DHT22;9676;50.916;13.352;2023-05-25T07:54:54;39.50;40.30
19088;DHT22;9676;50.916;13.352;2023-05-25T07:57:45;39.60;40.20
19088;DHT22;9676;50.916;13.352;2023-05-25T08:00:34;39.60;39.40
19088;DHT22;9676;50.916;13.352;2023-05-25T08:03:24;39.50;39.30
19088;DHT22;9676;50.916;13.352;2023-05-25T08:06:33;39.60;39.40
19088;DHT22;9676;50.916;13.352;2023-05-25T08:09:23;39.70;39.50
19088;DHT22;9676;50.916;13.352;2023-05-25T08:12:12;39.90;39.40
19088;DHT22;9676;50.916;13.352;2023-05-25T08:15:25;40.20;39.40
19088;DHT22;9676;50.916;13.352;2023-05-25T08:18:14;40.50;38.60
19088;DHT22;9676;50.916;13.352;2023-05-25T08:21:05;40.80;39.10
19088;DHT22;9676;50.916;13.352;2023-05-25T08:23:54;41.10;38.70
19088;DHT22;9676;50.916;13.352;2023-05-25T08:26:44;41.30;37.80
19088;DHT22;9676;50.916;13.352;2023-05-25T08:29:39;41.30;37.50
19088;DHT22;9676;50.916;13.352;2023-05-25T08:32:30;41.40;37.30
19088;DHT22;9676;50.916;13.352;2023-05-25T08:35:19;41.50;37.20
19088;DHT22;9676;50.916;13.352;2023-05-25T08:38:09;41.60;36.90
19088;DHT22;9676;50.916;13.352;2023-05-25T08:41:03;41.80;36.80
19088;DHT22;9676;50.916;13.352;2023-05-25T08:43:53;42.00;35.80
19088;DHT22;9676;50.916;13.352;2023-05-25T08:46:46;42.20;36.40
19088;DHT22;9676;50.916;13.352;2023-05-25T08:49:38;42.40;35.30
19088;DHT22;9676;50.916;13.352;2023-05-25T08:52:28;42.50;35.20
19088;DHT22;9676;50.916;13.352;2023-05-25T08:55:21;42.70;35.10
19088;DHT22;9676;50.916;13.352;2023-05-25T08:58:18;42.70;34.80
19088;DHT22;9676;50.916;13.352;2023-05-25T09:01:13;42.80;34.30
19088;DHT22;9676;50.916;13.352;2023-05-25T09:04:03;42.80;33.70
19088;DHT22;9676;50.916;13.352;2023-05-25T09:06:54;42.90;34.20
19088;DHT22;9676;50.916;13.352;2023-05-25T09:09:57;43.10;33.80
19088;DHT22;9676;50.916;13.352;2023-05-25T09:12:49;43.10;32.90
19088;DHT22;9676;50.916;13.352;2023-05-25T09:15:39;43.00;32.80
19088;DHT22;9676;50.916;13.352;2023-05-25T09:18:29;42.90;33.00
19088;DHT22;9676;50.916;13.352;2023-05-25T09:21:18;42.90;32.70
19088;DHT22;9676;50.916;13.352;2023-05-25T09:24:09;42.80;32.30
19088;DHT22;9676;50.916;13.352;2023-05-25T09:26:59;42.70;32.00
19088;DHT22;9676;50.916;13.352;2023-05-25T09:29:51;42.70;32.30
19088;DHT22;9676;50.916;13.352;2023-05-25T09:32:41;42.50;31.40
19088;DHT22;9676;50.916;13.352;2023-05-25T09:35:30;42.40;31.30
19088;DHT22;9676;50.916;13.352;2023-05-25T09:38:19;42.30;31.40
19088;DHT22;9676;50.916;13.352;2023-05-25T09:41:11;42.30;31.60
19088;DHT22;9676;50.916;13.352;2023-05-25T09:44:00;42.40;31.50
19088;DHT22;9676;50.916;13.352;2023-05-25T09:46:58;42.50;31.80
19088;DHT22;9676;50.916;13.352;2023-05-25T09:49:48;42.70;31.70
19088;DHT22;9676;50.916;13.352;2023-05-25T09:52:37;42.80;30.90
19088;DHT22;9676;50.916;13.352;2023-05-25T09:55:27;42.90;30.70
19088;DHT22;9676;50.916;13.352;2023-05-25T09:58:39;43.00;30.60
19088;DHT22;9676;50.916;13.352;2023-05-25T10:01:31;43.10;30.80
19088;DHT22;9676;50.916;13.352;2023-05-25T10:04:20;43.20;30.20
19088;DHT22;9676;50.916;13.352;2023-05-25T10:07:10;43.10;29.60
19088;DHT22;9676;50.916;13.352;2023-05-25T10:10:03;42.90;29.40
19088;DHT22;9676;50.916;13.352;2023-05-25T10:12:56;42.60;28.90
19088;DHT22;9676;50.916;13.352;2023-05-25T10:15:51;42.30;29.60
19088;DHT22;9676;50.916;13.352;2023-05-25T10:18:47;41.90;29.10
19088;DHT22;9676;50.916;13.352;2023-05-25T10:21:41;41.80;29.60
19088;DHT22;9676;50.916;13.352;2023-05-25T10:24:34;41.80;30.00
19088;DHT22;9676;50.916;13.352;2023-05-25T10:27:33;42.00;30.10
19088;DHT22;9676;50.916;13.352;2023-05-25T10:30:27;42.10;29.80
19088;DHT22;9676;50.916;13.352;2023-05-25T10:33:18;42.40;29.70
19088;DHT22;9676;50.916;13.352;2023-05-25T10:36:08;42.50;29.60
19088;DHT22;9676;50.916;13.352;2023-05-25T10:39:01;42.60;29.70
19088;DHT22;9676;50.916;13.352;2023-05-25T10:41:51;42.80;29.60
19088;DHT22;9676;50.916;13.352;2023-05-25T10:44:41;42.90;29.30
19088;DHT22;9676;50.916;13.352;2023-05-25T10:47:31;43.10;29.20
19088;DHT22;9676;50.916;13.352;2023-05-25T10:50:24;43.10;29.10
19088;DHT22;9676;50.916;13.352;2023-05-25T10:53:15;43.20;28.80
19088;DHT22;9676;50.916;13.352;2023-05-25T10:56:06;43.30;28.80
19088;DHT22;9676;50.916;13.352;2023-05-25T10:58:57;43.30;28.50
19088;DHT22;9676;50.916;13.352;2023-05-25T11:01:50;43.20;28.40
19088;DHT22;9676;50.916;13.352;2023-05-25T11:04:40;43.00;27.90
19088;DHT22;9676;50.916;13.352;2023-05-25T11:07:31;42.80;27.90
19088;DHT22;9676;50.916;13.352;2023-05-25T11:10:50;42.30;27.30
19088;DHT22;9676;50.916;13.352;2023-05-25T11:13:43;41.60;26.60
19088;DHT22;9676;50.916;13.352;2023-05-25T11:16:34;40.70;26.60
19088;DHT22;9676;50.916;13.352;2023-05-25T11:19:38;39.80;26.20
19088;DHT22;9676;50.916;13.352;2023-05-25T11:22:32;38.90;26.10
19088;DHT22;9676;50.916;13.352;2023-05-25T11:25:41;38.00;25.90
19088;DHT22;9676;50.916;13.352;2023-05-25T11:28:31;37.00;25.80
19088;DHT22;9676;50.916;13.352;2023-05-25T11:31:26;36.10;26.00
19088;DHT22;9676;50.916;13.352;2023-05-25T11:34:21;35.20;26.10
19088;DHT22;9676;50.916;13.352;2023-05-25T11:37:15;34.50;26.30
19088;DHT22;9676;50.916;13.352;2023-05-25T11:40:10;33.80;26.40
19088;DHT22;9676;50.916;13.352;2023-05-25T11:43:01;33.10;26.30
19088;DHT22;9676;50.916;13.352;2023-05-25T11:45:56;32.40;26.40
19088;DHT22;9676;50.916;13.352;2023-05-25T11:48:49;31.80;26.60
19088;DHT22;9676;50.916;13.352;2023-05-25T11:51:40;31.20;26.90
19088;DHT22;9676;50.916;13.352;2023-05-25T11:54:29;30.60;27.00
19088;DHT22;9676;50.916;13.352;2023-05-25T11:57:21;30.20;27.10
19088;DHT22;9676;50.916;13.352;2023-05-25T12:00:13;29.70;27.20
19088;DHT22;9676;50.916;13.352;2023-05-25T12:03:28;29.30;27.30
19088;DHT22;9676;50.916;13.352;2023-05-25T12:06:25;29.00;27.80
19088;DHT22;9676;50.916;13.352;2023-05-25T12:09:19;28.70;28.10
19088;DHT22;9676;50.916;13.352;2023-05-25T12:12:10;28.60;28.30
19088;DHT22;9676;50.916;13.352;2023-05-25T12:15:01;28.40;28.40
19088;DHT22;9676;50.916;13.352;2023-05-25T12:17:51;28.20;28.50
19088;DHT22;9676;50.916;13.352;2023-05-25T12:20:41;28.10;28.50
19088;DHT22;9676;50.916;13.352;2023-05-25T12:23:32;27.90;28.60
19088;DHT22;9676;50.916;13.352;2023-05-25T12:26:22;27.70;28.70
19088;DHT22;9676;50.916;13.352;2023-05-25T12:29:11;27.50;28.80
19088;DHT22;9676;50.916;13.352;2023-05-25T12:32:03;27.40;29.10
19088;DHT22;9676;50.916;13.352;2023-05-25T12:35:01;27.30;29.30
19088;DHT22;9676;50.916;13.352;2023-05-25T12:38:09;27.20;29.50
19088;DHT22;9676;50.916;13.352;2023-05-25T12:41:04;27.10;29.60
19088;DHT22;9676;50.916;13.352;2023-05-25T12:43:56;27.00;29.60
19088;DHT22;9676;50.916;13.352;2023-05-25T12:46:46;27.00;29.50
19088;DHT22;9676;50.916;13.352;2023-05-25T12:49:39;26.90;29.50
19088;DHT22;9676;50.916;13.352;2023-05-25T12:52:34;26.80;29.50
19088;DHT22;9676;50.916;13.352;2023-05-25T12:55:26;26.70;29.70
19088;DHT22;9676;50.916;13.352;2023-05-25T12:58:26;26.60;29.70
19088;DHT22;9676;50.916;13.352;2023-05-25T13:01:17;26.50;29.80
19088;DHT22;9676;50.916;13.352;2023-05-25T13:04:06;26.40;29.60
19088;DHT22;9676;50.916;13.352;2023-05-25T13:06:57;26.20;29.60
19088;DHT22;9676;50.916;13.352;2023-05-25T13:09:46;26.00;29.60
19088;DHT22;9676;50.916;13.352;2023-05-25T13:12:36;25.90;29.70
19088;DHT22;9676;50.916;13.352;2023-05-25T13:15:26;25.70;29.80
19088;DHT22;9676;50.916;13.352;2023-05-25T13:18:16;25.60;30.00
19088;DHT22;9676;50.916;13.352;2023-05-25T13:21:05;25.40;30.00
19088;DHT22;9676;50.916;13.352;2023-05-25T13:23:57;25.40;30.40
19088;DHT22;9676;50.916;13.352;2023-05-25T13:26:47;25.30;30.50
19088;DHT22;9676;50.916;13.352;2023-05-25T13:29:38;25.30;30.80
19088;DHT22;9676;50.916;13.352;2023-05-25T13:32:27;25.20;30.60
19088;DHT22;9676;50.916;13.352;2023-05-25T13:35:18;25.20;30.80
19088;DHT22;9676;50.916;13.352;2023-05-25T13:38:24;25.10;31.00
19088;DHT22;9676;50.916;13.352;2023-05-25T13:41:15;25.00;31.30
19088;DHT22;9676;50.916;13.352;2023-05-25T13:44:05;24.90;31.70
19088;DHT22;9676;50.916;13.352;2023-05-25T13:46:55;24.90;31.90
19088;DHT22;9676;50.916;13.352;2023-05-25T13:49:44;24.90;39.10
19088;DHT22;9676;50.916;13.352;2023-05-25T13:52:34;24.80;44.20
19088;DHT22;9676;50.916;13.352;2023-05-25T13:55:24;24.90;43.90
19088;DHT22;9676;50.916;13.352;2023-05-25T13:58:15;24.90;40.10
19088;DHT22;9676;50.916;13.352;2023-05-25T14:01:04;24.90;32.30
19088;DHT22;9676;50.916;13.352;2023-05-25T14:03:54;24.80;32.10
19088;DHT22;9676;50.916;13.352;2023-05-25T14:06:44;24.90;32.10
19088;DHT22;9676;50.916;13.352;2023-05-25T14:09:34;24.90;32.10
19088;DHT22;9676;50.916;13.352;2023-05-25T14:12:24;24.90;32.20
19088;DHT22;9676;50.916;13.352;2023-05-25T14:15:14;24.80;32.20
19088;DHT22;9676;50.916;13.352;2023-05-25T14:18:04;24.70;32.30
19088;DHT22;9676;50.916;13.352;2023-05-25T14:20:54;24.60;32.30
19088;DHT22;9676;50.916;13.352;2023-05-25T14:23:43;24.50;32.40
19088;DHT22;9676;50.916;13.352;2023-05-25T14:26:32;24.50;32.60
19088;DHT22;9676;50.916;13.352;2023-05-25T14:29:22;24.50;32.60
19088;DHT22;9676;50.916;13.352;2023-05-25T14:32:13;24.50;32.70
19088;DHT22;9676;50.916;13.352;2023-05-25T14:35:04;24.40;32.70
19088;DHT22;9676;50.916;13.352;2023-05-25T14:37:54;24.40;32.60
19088;DHT22;9676;50.916;13.352;2023-05-25T14:40:43;24.40;32.60
19088;DHT22;9676;50.916;13.352;2023-05-25T14:43:33;24.30;32.60
19088;DHT22;9676;50.916;13.352;2023-05-25T14:46:22;24.20;32.60
19088;DHT22;9676;50.916;13.352;2023-05-25T14:49:13;24.20;32.90
19088;DHT22;9676;50.916;13.352;2023-05-25T14:52:03;24.10;33.00
19088;DHT22;9676;50.916;13.352;2023-05-25T14:54:53;24.00;33.10
19088;DHT22;9676;50.916;13.352;2023-05-25T14:57:42;23.90;33.20
19088;DHT22;9676;50.916;13.352;2023-05-25T15:00:32;23.90;33.20
19088;DHT22;9676;50.916;13.352;2023-05-25T15:03:22;23.90;33.20
19088;DHT22;9676;50.916;13.352;2023-05-25T15:06:12;23.90;33.20
19088;DHT22;9676;50.916;13.352;2023-05-25T15:09:02;23.90;33.20
19088;DHT22;9676;50.916;13.352;2023-05-25T15:11:51;23.80;33.20
19088;DHT22;9676;50.916;13.352;2023-05-25T15:14:41;23.80;33.30
19088;DHT22;9676;50.916;13.352;2023-05-25T15:17:30;23.80;33.30
19088;DHT22;9676;50.916;13.352;2023-05-25T15:20:20;23.70;33.30
19088;DHT22;9676;50.916;13.352;2023-05-25T15:23:11;23.70;33.40
19088;DHT22;9676;50.916;13.352;2023-05-25T15:26:00;23.60;33.50
19088;DHT22;9676;50.916;13.352;2023-05-25T15:28:51;23.50;33.40
19088;DHT22;9676;50.916;13.352;2023-05-25T15:31:40;23.40;33.50
19088;DHT22;9676;50.916;13.352;2023-05-25T15:34:30;23.40;33.70
19088;DHT22;9676;50.916;13.352;2023-05-25T15:37:19;23.30;33.50
19088;DHT22;9676;50.916;13.352;2023-05-25T15:40:11;23.30;33.70
19088;DHT22;9676;50.916;13.352;2023-05-25T15:43:01;23.20;33.90
19088;DHT22;9676;50.916;13.352;2023-05-25T15:45:51;23.10;33.80
19088;DHT22;9676;50.916;13.352;2023-05-25T15:48:40;23.10;34.00
19088;DHT22;9676;50.916;13.352;2023-05-25T15:51:30;23.10;34.00
19088;DHT22;9676;50.916;13.352;2023-05-25T15:54:19;23.00;34.00
19088;DHT22;9676;50.916;13.352;2023-05-25T15:57:10;23.00;34.20
19088;DHT22;9676;50.916;13.352;2023-05-25T15:59:59;22.90;34.30
19088;DHT22;9676;50.916;13.352;2023-05-25T16:03:09;22.90;34.30
19088;DHT22;9676;50.916;13.352;2023-05-25T16:05:59;22.90;34.30
19088;DHT22;9676;50.916;13.352;2023-05-25T16:08:49;22.90;34.40
19088;DHT22;9676;50.916;13.352;2023-05-25T16:11:38;22.90;34.30
19088;DHT22;9676;50.916;13.352;2023-05-25T16:14:29;22.80;34.30
19088;DHT22;9676;50.916;13.352;2023-05-25T16:17:18;22.90;34.50
19088;DHT22;9676;50.916;13.352;2023-05-25T16:20:08;22.80;34.40
19088;DHT22;9676;50.916;13.352;2023-05-25T16:22:58;22.70;34.30
19088;DHT22;9676;50.916;13.352;2023-05-25T16:25:47;22.70;34.40
19088;DHT22;9676;50.916;13.352;2023-05-25T16:28:37;22.60;34.50
19088;DHT22;9676;50.916;13.352;2023-05-25T16:31:28;22.60;34.60
19088;DHT22;9676;50.916;13.352;2023-05-25T16:34:18;22.50;34.80
19088;DHT22;9676;50.916;13.352;2023-05-25T16:37:07;22.50;34.80
19088;DHT22;9676;50.916;13.352;2023-05-25T16:39:57;22.50;35.00
19088;DHT22;9676;50.916;13.352;2023-05-25T16:42:46;22.50;34.90
19088;DHT22;9676;50.916;13.352;2023-05-25T16:45:36;22.40;34.80
19088;DHT22;9676;50.916;13.352;2023-05-25T16:48:27;22.40;34.80
19088;DHT22;9676;50.916;13.352;2023-05-25T16:51:17;22.30;34.80
19088;DHT22;9676;50.916;13.352;2023-05-25T16:54:07;22.30;34.90
19088;DHT22;9676;50.916;13.352;2023-05-25T16:56:56;22.30;34.90
19088;DHT22;9676;50.916;13.352;2023-05-25T16:59:46;22.20;34.80
19088;DHT22;9676;50.916;13.352;2023-05-25T17:02:37;22.20;34.90
19088;DHT22;9676;50.916;13.352;2023-05-25T17:05:28;22.20;34.80
19088;DHT22;9676;50.916;13.352;2023-05-25T17:08:18;22.10;34.80
19088;DHT22;9676;50.916;13.352;2023-05-25T17:11:07;22.10;34.90
19088;DHT22;9676;50.916;13.352;2023-05-25T17:13:57;22.00;34.80
19088;DHT22;9676;50.916;13.352;2023-05-25T17:16:47;21.90;34.80
19088;DHT22;9676;50.916;13.352;2023-05-25T17:19:36;21.90;35.00
19088;DHT22;9676;50.916;13.352;2023-05-25T17:22:27;21.90;35.10
19088;DHT22;9676;50.916;13.352;2023-05-25T17:25:16;21.80;35.30
19088;DHT22;9676;50.916;13.352;2023-05-25T17:28:06;21.80;35.30
19088;DHT22;9676;50.916;13.352;2023-05-25T17:30:55;21.80;35.40
19088;DHT22;9676;50.916;13.352;2023-05-25T17:33:45;21.80;35.50
19088;DHT22;9676;50.916;13.352;2023-05-25T17:36:35;21.70;35.50
19088;DHT22;9676;50.916;13.352;2023-05-25T17:39:26;21.70;35.40
19088;DHT22;9676;50.916;13.352;2023-05-25T17:42:15;21.70;35.50
19088;DHT22;9676;50.916;13.352;2023-05-25T17:45:06;21.60;35.40
19088;DHT22;9676;50.916;13.352;2023-05-25T17:47:58;21.60;35.60
19088;DHT22;9676;50.916;13.352;2023-05-25T17:50:47;21.50;35.60
19088;DHT22;9676;50.916;13.352;2023-05-25T17:53:37;21.50;35.80
19088;DHT22;9676;50.916;13.352;2023-05-25T17:56:28;21.50;35.90
19088;DHT22;9676;50.916;13.352;2023-05-25T17:59:17;21.40;36.00
19088;DHT22;9676;50.916;13.352;2023-05-25T18:02:07;21.40;36.00
19088;DHT22;9676;50.916;13.352;2023-05-25T18:04:57;21.30;36.10